Time;durP1;ratioP1;P1;durP2;ratioP2;P2;SDS_P1;SDS_P2;PMS_P1;PMS_P2;Temp;Humidity;BMP_temperature;BMP_pressure;BME280_temperature;BME280_humidity;BME280_pressure;Samples;Min_cycle;Max_cycle;Signal;HPM_P1;HPM_P2
2021/09/18 07:23:46;;;;;;;23.70;13.65;;;15.10;96.70;;;;;;4831064;24;20038;-90
2021/09/18 07:26:12;;;;;;;16.33;13.70;;;15.20;96.70;;;;;;4753091;30;20067;-90
2021/09/18 07:28:38;;;;;;;17.42;14.60;;;15.20;96.70;;;;;;4737840;30;20114;-86
2021/09/18 07:31:04;;;;;;;15.23;13.70;;;15.30;96.70;;;;;;4756862;30;20063;-82
2021/09/18 07:33:29;;;;;;;13.82;12.43;;;15.20;96.70;;;;;;4734323;30;20041;-85
2021/09/18 07:35:58;;;;;;;18.48;14.20;;;15.30;96.70;;;;;;4754705;30;20541;-93
2021/09/18 07:38:24;;;;;;;18.70;14.20;;;15.40;96.70;;;;;;4754371;30;20060;-88
2021/09/18 07:40:54;;;;;;;17.25;15.15;;;15.40;96.70;;;;;;4758271;30;20460;-87
2021/09/18 07:43:20;;;;;;;16.13;14.40;;;15.50;96.60;;;;;;4773475;30;20031;-87
2021/09/18 07:45:46;;;;;;;16.27;14.63;;;15.50;96.60;;;;;;4763143;30;20439;-86
2021/09/18 07:48:12;;;;;;;15.20;13.70;;;15.50;96.50;;;;;;4773539;30;20058;-86
2021/09/18 07:50:37;;;;;;;16.50;14.80;;;15.50;96.50;;;;;;4751319;30;20094;-90
2021/09/18 07:53:07;;;;;;;19.30;17.27;;;15.50;96.50;;;;;;4755709;30;20050;-87
2021/09/18 07:55:38;;;;;;;19.70;16.50;;;15.60;96.60;;;;;;4762090;30;20389;-89
2021/09/18 07:58:04;;;;;;;19.08;17.05;;;15.50;96.60;;;;;;4745243;30;20036;-86
2021/09/18 08:00:30;;;;;;;17.70;14.75;;;15.50;96.60;;;;;;4754762;30;20544;-86
2021/09/18 08:03:24;;;;;;;19.35;17.10;;;15.60;96.70;;;;;;4771286;30;20051;-93
2021/09/18 08:06:05;;;;;;;18.00;16.05;;;15.70;96.70;;;;;;4758112;30;20044;-93
2021/09/18 08:08:50;;;;;;;17.98;14.85;;;15.70;96.70;;;;;;4773545;30;20114;-93
2021/09/18 08:11:19;;;;;;;17.30;14.40;;;15.80;96.60;;;;;;4755819;30;20051;-87
2021/09/18 08:13:45;;;;;;;17.60;15.73;;;15.90;96.60;;;;;;4753633;30;20035;-86
2021/09/18 08:16:12;;;;;;;16.80;15.10;;;15.90;96.60;;;;;;4740488;30;20036;-87
2021/09/18 08:18:41;;;;;;;17.55;15.75;;;16.00;96.60;;;;;;4766003;30;20087;-85
2021/09/18 08:21:06;;;;;;;19.15;17.10;;;16.00;96.50;;;;;;4777468;30;20493;-87
2021/09/18 08:23:32;;;;;;;20.25;15.60;;;16.10;96.70;;;;;;4757588;30;20097;-87
2021/09/18 08:25:58;;;;;;;18.15;16.25;;;16.20;96.50;;;;;;4769955;30;20064;-87
2021/09/18 08:28:32;;;;;;;20.85;17.42;;;16.20;96.50;;;;;;4756803;30;20084;-89
2021/09/18 08:30:58;;;;;;;21.65;17.40;;;16.20;96.40;;;;;;4753972;30;20489;-88
2021/09/18 08:33:31;;;;;;;21.73;17.30;;;16.30;96.40;;;;;;4741079;30;20028;-90
2021/09/18 08:36:48;;;;;;;;;;;;;;;;;;;;;
2021/09/18 08:39:14;;;;;;;22.08;18.70;;;16.50;96.40;;;;;;4750889;30;20131;-89
2021/09/18 08:42:02;;;;;;;;;;;;;;;;;;;;;
2021/09/18 08:44:36;;;;;;;25.77;19.48;;;16.50;96.20;;;;;;4756368;30;20054;-91
2021/09/18 08:47:06;;;;;;;28.70;19.42;;;16.60;96.20;;;;;;4770782;30;20023;-94
2021/09/18 08:49:40;;;;;;;40.80;22.38;;;16.60;96.20;;;;;;4762216;30;20073;-88
2021/09/18 08:52:33;;;;;;;;;;;;;;;;;;;;;
2021/09/18 08:55:02;;;;;;;31.70;26.10;;;16.70;96.10;;;;;;4762067;30;20099;-93
2021/09/18 08:57:29;;;;;;;26.65;23.15;;;16.70;96.00;;;;;;4766055;30;20367;-85
2021/09/18 08:59:55;;;;;;;26.58;20.60;;;16.70;96.00;;;;;;4776100;30;20103;-93
2021/09/18 09:02:34;;;;;;;27.50;22.42;;;16.80;96.00;;;;;;4751125;30;20397;-95
2021/09/18 09:05:22;;;;;;;;;;;;;;;;;;;;;
2021/09/18 09:08:11;;;;;;;34.13;24.08;;;16.90;96.00;;;;;;4758939;30;20115;-93
2021/09/18 09:10:42;;;;;;;29.50;23.92;;;17.00;95.90;;;;;;4756376;30;20037;-92
2021/09/18 09:13:19;;;;;;;31.27;24.75;;;17.00;95.80;;;;;;4758436;30;20374;-94
2021/09/18 09:15:50;;;;;;;27.45;22.33;;;17.10;95.70;;;;;;4758328;30;20115;-92
2021/09/18 09:18:24;;;;;;;25.10;21.05;;;17.10;95.60;;;;;;4760319;30;20073;-93
2021/09/18 09:21:12;;;;;;;28.65;22.75;;;17.20;95.60;;;;;;4773277;30;20063;-93
2021/09/18 09:23:41;;;;;;;31.52;26.25;;;17.30;95.60;;;;;;4761452;30;20020;-94
2021/09/18 09:26:10;;;;;;;31.58;26.85;;;17.30;95.50;;;;;;4766478;30;20056;-94
2021/09/18 09:28:45;;;;;;;27.70;23.70;;;17.30;95.40;;;;;;4761052;30;20031;-93
2021/09/18 09:31:29;;;;;;;25.55;21.67;;;17.30;95.40;;;;;;4776407;30;20046;-92
2021/09/18 09:34:14;;;;;;;26.10;21.98;;;17.40;95.40;;;;;;4760230;30;20397;-92
2021/09/18 09:36:54;;;;;;;29.80;24.38;;;17.40;95.30;;;;;;4762446;30;20035;-91
2021/09/18 09:39:24;;;;;;;31.70;25.00;;;17.50;95.20;;;;;;4776059;30;20016;-93
2021/09/18 09:41:56;;;;;;;27.63;22.73;;;17.50;95.20;;;;;;4758786;30;20047;-93
2021/09/18 09:44:28;;;;;;;28.10;23.20;;;17.50;95.20;;;;;;4759216;30;20039;-92
2021/09/18 09:47:07;;;;;;;26.75;22.67;;;17.60;95.20;;;;;;4759082;30;20036;-92
2021/09/18 09:49:51;;;;;;;33.55;26.15;;;17.60;95.20;;;;;;4758272;30;20057;-89
2021/09/18 09:52:27;;;;;;;30.60;24.23;;;17.70;95.10;;;;;;4754861;30;20062;-89
2021/09/18 09:55:05;;;;;;;29.42;24.42;;;17.80;95.00;;;;;;4755040;30;20032;-89
2021/09/18 09:57:34;;;;;;;29.35;23.85;;;17.70;94.80;;;;;;4759741;30;20036;-90
2021/09/18 10:00:05;;;;;;;30.27;24.90;;;17.80;94.80;;;;;;4757223;30;20032;-91
2021/09/18 10:02:36;;;;;;;25.95;22.02;;;17.80;94.70;;;;;;4771628;30;20060;-90
2021/09/18 10:05:04;;;;;;;26.58;22.05;;;17.80;94.70;;;;;;4771228;30;20035;-91
2021/09/18 10:07:33;;;;;;;24.27;21.05;;;17.90;94.70;;;;;;4773938;30;20036;-90
2021/09/18 10:10:02;;;;;;;31.83;25.77;;;17.90;94.70;;;;;;4771958;30;20036;-90
2021/09/18 10:12:32;;;;;;;24.23;21.20;;;18.00;94.70;;;;;;4765099;30;20036;-92
2021/09/18 10:15:06;;;;;;;27.20;24.08;;;18.00;94.60;;;;;;4773775;30;20040;-91
2021/09/18 10:17:40;;;;;;;28.45;24.35;;;18.10;94.60;;;;;;4757545;30;20100;-93
2021/09/18 10:20:12;;;;;;;27.77;24.38;;;18.10;94.60;;;;;;4743761;30;20044;-92
2021/09/18 10:25:34;;;;;;;26.92;21.10;;;18.20;94.30;;;;;;4758631;30;20125;-90
2021/09/18 10:28:05;;;;;;;25.52;21.05;;;18.30;94.20;;;;;;4753650;30;20036;-89
2021/09/18 10:30:38;;;;;;;28.60;24.17;;;18.30;94.20;;;;;;4758407;30;20036;-89
2021/09/18 10:33:08;;;;;;;27.05;23.63;;;18.40;94.00;;;;;;4725662;30;20095;-89
2021/09/18 10:35:53;;;;;;;27.00;23.63;;;18.40;93.70;;;;;;4749152;30;20036;-87
2021/09/18 10:38:24;;;;;;;24.10;21.50;;;18.50;93.50;;;;;;4765875;30;20040;-89
2021/09/18 10:40:53;;;;;;;;;;;18.50;93.30;;;;;;4757191;30;20086;-86
2021/09/18 10:43:32;;;;;;;23.27;20.48;;;18.50;93.30;;;;;;4759820;30;19909;-91
2021/09/18 10:46:01;;;;;;;21.63;18.42;;;18.50;93.30;;;;;;4757337;30;20035;-89
2021/09/18 10:48:37;;;;;;;23.67;20.13;;;18.60;93.40;;;;;;4757164;30;20481;-90
2021/09/18 10:51:04;;;;;;;23.75;21.20;;;18.60;93.30;;;;;;4754423;30;20039;-88
2021/09/18 10:53:50;;;;;;;23.42;20.58;;;18.60;93.10;;;;;;4758628;30;20115;-91
2021/09/18 10:56:16;;;;;;;21.35;18.73;;;18.70;93.00;;;;;;4754087;30;20036;-89
2021/09/18 10:59:05;;;;;;;24.30;21.52;;;18.70;93.10;;;;;;4771099;30;20485;-90
2021/09/18 11:01:33;;;;;;;25.65;22.05;;;18.80;92.80;;;;;;4774251;30;20038;-90
2021/09/18 11:03:59;;;;;;;28.40;24.45;;;18.80;92.80;;;;;;4738605;30;20039;-88
2021/09/18 11:06:39;;;;;;;28.65;24.10;;;18.90;93.00;;;;;;4758016;30;20051;-90
2021/09/18 11:09:06;;;;;;;25.10;22.23;;;18.90;92.70;;;;;;4751244;30;20039;-94
2021/09/18 11:16:10;;;;;;;24.60;22.00;;;19.00;92.70;;;;;;4758445;30;20123;-93
2021/09/18 12:52:46;;;;;;;25.77;21.58;;;19.80;90.80;;;;;;4757536;30;20107;-90
2021/09/18 12:55:33;;;;;;;23.55;18.95;;;19.90;90.60;;;;;;4754727;30;20343;-89
2021/09/18 12:58:24;;;;;;;22.20;19.02;;;19.90;90.50;;;;;;4759378;30;20040;-88
2021/09/18 13:01:23;;;;;;;;;;;19.90;90.10;;;;;;4755426;30;20059;-89
2021/09/18 13:04:09;;;;;;;21.48;18.42;;;19.90;90.20;;;;;;4744060;30;20355;-89
2021/09/18 17:20:16;;;;;;;7.03;5.18;;;19.60;84.60;;;;;;3651399;24;20358;31
2021/09/18 17:23:11;;;;;;;;;;;;;;;;;;;;;
2021/09/18 17:29:00;;;;;;;5.70;5.10;;;19.40;85.30;;;;;;4722993;30;20481;-93
2021/09/18 17:35:11;;;;;;;;;;;;;;;;;;;;;
2021/09/18 17:42:00;;;;;;;;;;;;;;;;;;;;;
2021/09/18 17:45:00;;;;;;;;;;;;;;;;;;;;;
2021/09/18 17:47:34;;;;;;;4.85;4.43;;;19.10;86.50;;;;;;4750597;30;20135;-92
2021/09/18 17:50:19;;;;;;;;;;;;;;;;;;;;;
2021/09/18 17:53:32;;;;;;;;;;;;;;;;;;;;;
2021/09/18 17:56:24;;;;;;;6.65;5.07;;;19.00;86.80;;;;;;4755461;30;20180;-92
2021/09/18 18:02:36;;;;;;;;;;;;;;;;;;;;;
2021/09/18 18:11:50;;;;;;;;;;;;;;;;;;;;;
2021/09/18 18:14:37;;;;;;;5.20;4.65;;;18.60;87.50;;;;;;4752670;30;20123;-93
2021/09/18 18:17:21;;;;;;;6.40;5.60;;;18.60;87.70;;;;;;4764835;30;20050;-93
2021/09/18 18:20:51;;;;;;;;;;;;;;;;;;;;;
2021/09/18 18:27:09;;;;;;;7.22;5.35;;;18.40;88.20;;;;;;4757584;30;20052;-93
2021/09/18 18:29:46;;;;;;;6.07;5.47;;;18.40;88.30;;;;;;4754890;30;20048;-93
2021/09/18 18:32:22;;;;;;;;;;;;;;;;;;;;;
2021/09/18 18:35:21;;;;;;;;;;;;;;;;;;;;;
2021/09/18 18:38:06;;;;;;;;;;;;;;;;;;;;;
2021/09/18 18:40:52;;;;;;;6.20;4.80;;;18.30;88.50;;;;;;4771462;30;20451;-92
2021/09/18 18:43:47;;;;;;;6.72;5.40;;;18.20;88.70;;;;;;4763599;30;20051;-92
2021/09/18 18:46:28;;;;;;;;;;;;;;;;;;;;;
2021/09/18 18:49:21;;;;;;;;;;;;;;;;;;;;;
2021/09/18 18:55:48;;;;;;;;;;;;;;;;;;;;;
2021/09/18 19:09:13;;;;;;;;;;;;;;;;;;;;;
2021/09/18 19:12:01;;;;;;;5.50;4.60;;;17.90;89.10;;;;;;4755646;30;20038;-93
2021/09/18 19:18:42;;;;;;;;;;;;;;;;;;;;;
2021/09/18 19:22:10;;;;;;;;;;;;;;;;;;;;;
2021/09/18 19:25:34;;;;;;;;;;;;;;;;;;;;;
2021/09/18 19:28:36;;;;;;;;;;;;;;;;;;;;;
2021/09/18 19:35:21;;;;;;;5.68;4.90;;;17.60;89.60;;;;;;4722452;30;20049;-94
2021/09/18 19:39:22;;;;;;;;;;;;;;;;;;;;;
2021/09/18 19:42:07;;;;;;;;;;;;;;;;;;;;;
2021/09/18 19:48:43;;;;;;;5.45;4.40;;;17.50;89.90;;;;;;4713947;30;20102;-93
2021/09/18 19:51:23;;;;;;;;;;;;;;;;;;;;;
2021/09/18 19:57:50;;;;;;;6.07;5.10;;;17.30;90.00;;;;;;4701979;30;20419;-92
2021/09/18 20:00:31;;;;;;;;;;;;;;;;;;;;;
2021/09/18 20:04:00;;;;;;;;;;;;;;;;;;;;;
2021/09/18 20:07:20;;;;;;;;;;;;;;;;;;;;;
2021/09/18 20:20:20;;;;;;;;;;;;;;;;;;;;;
2021/09/18 20:23:18;;;;;;;;;;;;;;;;;;;;;
2021/09/18 20:29:54;;;;;;;7.65;5.45;;;17.00;90.20;;;;;;4741644;30;20078;-92
2021/09/18 20:33:18;;;;;;;;;;;;;;;;;;;;;
2021/09/18 20:36:32;;;;;;;8.57;5.55;;;16.90;90.20;;;;;;4748514;30;20119;-92
2021/09/18 20:52:13;;;;;;;;;;;;;;;;;;;;;
2021/09/18 20:55:36;;;;;;;6.53;5.45;;;16.70;90.20;;;;;;4740830;30;20143;-92
2021/09/18 20:58:45;;;;;;;;;;;;;;;;;;;;;
2021/09/18 21:04:59;;;;;;;;;;;;;;;;;;;;;
2021/09/18 21:28:34;;;;;;;;;;;;;;;;;;;;;
2021/09/18 21:35:24;;;;;;;4.85;3.75;;;16.30;90.50;;;;;;4699462;30;20057;-92
2021/09/18 21:45:54;;;;;;;;;;;;;;;;;;;;;
2021/09/18 21:58:56;;;;;;;8.00;5.05;;;16.10;90.80;;;;;;4703157;30;20891;-92
2021/09/18 22:02:35;;;;;;;;;;;;;;;;;;;;;
2021/09/18 22:11:33;;;;;;;;;;;;;;;;;;;;;
2021/09/18 22:14:53;;;;;;;;;;;;;;;;;;;;;
2021/09/18 22:18:32;;;;;;;;;;;;;;;;;;;;;
2021/09/18 22:24:22;;;;;;;6.45;5.43;;;15.80;91.20;;;;;;4748959;30;20052;-93
2021/09/18 22:27:40;;;;;;;6.82;6.00;;;15.80;91.20;;;;;;4752408;30;20049;-93
2021/09/18 22:30:50;;;;;;;;;;;;;;;;;;;;;
2021/09/18 22:41:12;;;;;;;;;;;;;;;;;;;;;
2021/09/18 22:44:20;;;;;;;;;;;;;;;;;;;;;
2021/09/18 22:47:42;;;;;;;;;;;;;;;;;;;;;
2021/09/18 22:50:44;;;;;;;;;;;;;;;;;;;;;
2021/09/18 22:53:41;;;;;;;6.25;4.40;;;15.50;91.80;;;;;;4743714;30;20108;-92
2021/09/18 23:03:21;;;;;;;;;;;;;;;;;;;;;
2021/09/18 23:23:31;;;;;;;;;;;;;;;;;;;;;
2021/09/18 23:32:38;;;;;;;;;;;;;;;;;;;;;
2021/09/18 23:36:26;;;;;;;6.57;5.88;;;15.30;92.50;;;;;;4696783;30;20045;-92
2021/09/18 23:38:58;;;;;;;;;;;;;;;;;;;;;
2021/09/18 23:52:12;;;;;;;;;;;;;;;;;;;;;
2021/09/18 23:58:47;;;;;;;;;;;;;;;;;;;;;
